sensor_id;sensor_type;location;lat;lon;timestamp;pressure;altitude;pressure_sealevel;temperature
22322;BMP180;11328;53.928;18.522;2022-08-19T00:02:03;100082.00;;;26.30
22322;BMP180;11328;53.928;18.522;2022-08-19T00:04:34;100096.00;;;26.30
22322;BMP180;11328;53.928;18.522;2022-08-19T00:07:05;100100.00;;;26.20
22322;BMP180;11328;53.928;18.522;2022-08-19T00:09:33;100098.00;;;26.20
22322;BMP180;11328;53.928;18.522;2022-08-19T00:12:01;100100.00;;;26.20
22322;BMP180;11328;53.928;18.522;2022-08-19T00:14:28;100099.00;;;26.10
22322;BMP180;11328;53.928;18.522;2022-08-19T00:16:58;100088.00;;;26.10
22322;BMP180;11328;53.928;18.522;2022-08-19T00:19:25;100092.00;;;26.10
22322;BMP180;11328;53.928;18.522;2022-08-19T00:21:52;100087.00;;;26.10
22322;BMP180;11328;53.928;18.522;2022-08-19T00:24:20;100088.00;;;26.10
22322;BMP180;11328;53.928;18.522;2022-08-19T00:26:47;100090.00;;;26.10
22322;BMP180;11328;53.928;18.522;2022-08-19T00:29:19;100096.00;;;26.00
22322;BMP180;11328;53.928;18.522;2022-08-19T00:31:47;100095.00;;;26.10
22322;BMP180;11328;53.928;18.522;2022-08-19T00:34:16;100087.00;;;26.10
22322;BMP180;11328;53.928;18.522;2022-08-19T00:36:44;100089.00;;;26.20
22322;BMP180;11328;53.928;18.522;2022-08-19T00:39:12;100089.00;;;26.20
22322;BMP180;11328;53.928;18.522;2022-08-19T00:41:40;100089.00;;;26.20
22322;BMP180;11328;53.928;18.522;2022-08-19T00:44:22;100086.00;;;26.10
22322;BMP180;11328;53.928;18.522;2022-08-19T00:46:56;100087.00;;;26.10
22322;BMP180;11328;53.928;18.522;2022-08-19T00:49:41;100080.00;;;26.00
22322;BMP180;11328;53.928;18.522;2022-08-19T00:52:17;100087.00;;;26.00
22322;BMP180;11328;53.928;18.522;2022-08-19T00:54:48;100081.00;;;26.00
22322;BMP180;11328;53.928;18.522;2022-08-19T00:57:32;100073.00;;;25.90
22322;BMP180;11328;53.928;18.522;2022-08-19T01:00:03;100073.00;;;25.90
22322;BMP180;11328;53.928;18.522;2022-08-19T01:02:32;100075.00;;;25.90
22322;BMP180;11328;53.928;18.522;2022-08-19T01:05:05;100074.00;;;25.90
22322;BMP180;11328;53.928;18.522;2022-08-19T01:07:34;100077.00;;;26.00
22322;BMP180;11328;53.928;18.522;2022-08-19T01:10:12;100069.00;;;25.90
22322;BMP180;11328;53.928;18.522;2022-08-19T01:12:40;100063.00;;;25.90
22322;BMP180;11328;53.928;18.522;2022-08-19T01:15:12;100084.00;;;26.00
22322;BMP180;11328;53.928;18.522;2022-08-19T01:17:42;100067.00;;;26.00
22322;BMP180;11328;53.928;18.522;2022-08-19T01:20:17;100087.00;;;26.00
22322;BMP180;11328;53.928;18.522;2022-08-19T01:22:56;100088.00;;;26.00
22322;BMP180;11328;53.928;18.522;2022-08-19T01:25:38;100096.00;;;26.10
22322;BMP180;11328;53.928;18.522;2022-08-19T01:28:06;100088.00;;;26.20
22322;BMP180;11328;53.928;18.522;2022-08-19T01:30:37;100082.00;;;26.10
22322;BMP180;11328;53.928;18.522;2022-08-19T01:33:04;100087.00;;;26.00
22322;BMP180;11328;53.928;18.522;2022-08-19T01:35:32;100074.00;;;26.00
22322;BMP180;11328;53.928;18.522;2022-08-19T01:38:06;100084.00;;;26.00
22322;BMP180;11328;53.928;18.522;2022-08-19T01:40:39;100078.00;;;25.90
22322;BMP180;11328;53.928;18.522;2022-08-19T01:43:06;100070.00;;;25.80
22322;BMP180;11328;53.928;18.522;2022-08-19T01:45:35;100078.00;;;25.80
22322;BMP180;11328;53.928;18.522;2022-08-19T01:48:03;100073.00;;;25.80
22322;BMP180;11328;53.928;18.522;2022-08-19T01:50:32;100063.00;;;25.80
22322;BMP180;11328;53.928;18.522;2022-08-19T01:53:02;100065.00;;;25.90
22322;BMP180;11328;53.928;18.522;2022-08-19T01:55:37;100057.00;;;25.90
22322;BMP180;11328;53.928;18.522;2022-08-19T01:58:19;100055.00;;;25.80
22322;BMP180;11328;53.928;18.522;2022-08-19T02:00:48;100053.00;;;25.90
22322;BMP180;11328;53.928;18.522;2022-08-19T02:03:15;100048.00;;;25.90
22322;BMP180;11328;53.928;18.522;2022-08-19T02:05:44;100049.00;;;26.00
22322;BMP180;11328;53.928;18.522;2022-08-19T02:08:12;100046.00;;;26.00
22322;BMP180;11328;53.928;18.522;2022-08-19T02:10:42;100050.00;;;25.90
22322;BMP180;11328;53.928;18.522;2022-08-19T02:13:12;100062.00;;;25.80
22322;BMP180;11328;53.928;18.522;2022-08-19T02:15:40;100060.00;;;25.80
22322;BMP180;11328;53.928;18.522;2022-08-19T02:18:08;100060.00;;;25.80
22322;BMP180;11328;53.928;18.522;2022-08-19T02:20:37;100054.00;;;25.70
22322;BMP180;11328;53.928;18.522;2022-08-19T02:23:06;100048.00;;;25.70
22322;BMP180;11328;53.928;18.522;2022-08-19T02:25:47;100036.00;;;25.70
22322;BMP180;11328;53.928;18.522;2022-08-19T02:28:15;100044.00;;;25.60
22322;BMP180;11328;53.928;18.522;2022-08-19T02:30:46;100047.00;;;25.60
22322;BMP180;11328;53.928;18.522;2022-08-19T02:33:13;100048.00;;;25.50
22322;BMP180;11328;53.928;18.522;2022-08-19T02:35:45;100041.00;;;25.60
22322;BMP180;11328;53.928;18.522;2022-08-19T02:38:13;100048.00;;;25.60
22322;BMP180;11328;53.928;18.522;2022-08-19T02:40:57;100041.00;;;25.50
22322;BMP180;11328;53.928;18.522;2022-08-19T02:43:26;100041.00;;;25.50
22322;BMP180;11328;53.928;18.522;2022-08-19T02:45:54;100042.00;;;25.40
22322;BMP180;11328;53.928;18.522;2022-08-19T02:48:23;100045.00;;;25.40
22322;BMP180;11328;53.928;18.522;2022-08-19T02:50:52;100040.00;;;25.40
22322;BMP180;11328;53.928;18.522;2022-08-19T02:53:26;100028.00;;;25.40
22322;BMP180;11328;53.928;18.522;2022-08-19T02:55:54;100038.00;;;25.30
22322;BMP180;11328;53.928;18.522;2022-08-19T02:58:22;100043.00;;;25.30
22322;BMP180;11328;53.928;18.522;2022-08-19T03:00:56;100037.00;;;25.30
22322;BMP180;11328;53.928;18.522;2022-08-19T03:03:24;100041.00;;;25.30
22322;BMP180;11328;53.928;18.522;2022-08-19T03:05:51;100021.00;;;25.20
22322;BMP180;11328;53.928;18.522;2022-08-19T03:08:24;100030.00;;;25.30
22322;BMP180;11328;53.928;18.522;2022-08-19T03:10:52;100029.00;;;25.20
22322;BMP180;11328;53.928;18.522;2022-08-19T03:13:20;100029.00;;;25.30
22322;BMP180;11328;53.928;18.522;2022-08-19T03:15:48;100026.00;;;25.30
22322;BMP180;11328;53.928;18.522;2022-08-19T03:18:16;100038.00;;;25.10
22322;BMP180;11328;53.928;18.522;2022-08-19T03:20:47;100031.00;;;25.10
22322;BMP180;11328;53.928;18.522;2022-08-19T03:23:16;100032.00;;;25.10
22322;BMP180;11328;53.928;18.522;2022-08-19T03:25:46;100035.00;;;25.10
22322;BMP180;11328;53.928;18.522;2022-08-19T03:28:34;100020.00;;;25.10
22322;BMP180;11328;53.928;18.522;2022-08-19T03:31:09;100037.00;;;25.00
22322;BMP180;11328;53.928;18.522;2022-08-19T03:33:57;100033.00;;;25.10
22322;BMP180;11328;53.928;18.522;2022-08-19T03:36:26;100038.00;;;25.10
22322;BMP180;11328;53.928;18.522;2022-08-19T03:39:00;100037.00;;;25.00
22322;BMP180;11328;53.928;18.522;2022-08-19T03:41:38;100041.00;;;25.00
22322;BMP180;11328;53.928;18.522;2022-08-19T03:44:26;100044.00;;;25.00
22322;BMP180;11328;53.928;18.522;2022-08-19T03:46:57;100039.00;;;25.00
22322;BMP180;11328;53.928;18.522;2022-08-19T03:49:29;100033.00;;;24.90
22322;BMP180;11328;53.928;18.522;2022-08-19T03:51:58;100030.00;;;24.90
22322;BMP180;11328;53.928;18.522;2022-08-19T03:54:27;100044.00;;;24.80
22322;BMP180;11328;53.928;18.522;2022-08-19T03:56:57;100029.00;;;24.90
22322;BMP180;11328;53.928;18.522;2022-08-19T03:59:33;100050.00;;;24.90
22322;BMP180;11328;53.928;18.522;2022-08-19T04:02:05;100040.00;;;24.80
22322;BMP180;11328;53.928;18.522;2022-08-19T04:04:38;100043.00;;;24.90
22322;BMP180;11328;53.928;18.522;2022-08-19T04:07:06;100045.00;;;24.80
22322;BMP180;11328;53.928;18.522;2022-08-19T04:09:35;100049.00;;;24.80
22322;BMP180;11328;53.928;18.522;2022-08-19T04:12:04;100051.00;;;24.70
22322;BMP180;11328;53.928;18.522;2022-08-19T04:14:32;100056.00;;;24.70
22322;BMP180;11328;53.928;18.522;2022-08-19T04:17:03;100054.00;;;24.60
22322;BMP180;11328;53.928;18.522;2022-08-19T04:19:34;100050.00;;;24.60
22322;BMP180;11328;53.928;18.522;2022-08-19T04:22:02;100057.00;;;24.60
22322;BMP180;11328;53.928;18.522;2022-08-19T04:24:30;100056.00;;;24.50
22322;BMP180;11328;53.928;18.522;2022-08-19T04:27:03;100053.00;;;24.60
22322;BMP180;11328;53.928;18.522;2022-08-19T04:29:30;100041.00;;;24.60
22322;BMP180;11328;53.928;18.522;2022-08-19T04:31:59;100039.00;;;24.60
22322;BMP180;11328;53.928;18.522;2022-08-19T04:34:36;100026.00;;;24.60
22322;BMP180;11328;53.928;18.522;2022-08-19T04:37:23;100040.00;;;24.60
22322;BMP180;11328;53.928;18.522;2022-08-19T04:39:51;100030.00;;;24.60
22322;BMP180;11328;53.928;18.522;2022-08-19T04:42:37;100029.00;;;24.70
22322;BMP180;11328;53.928;18.522;2022-08-19T04:45:12;100041.00;;;24.60
22322;BMP180;11328;53.928;18.522;2022-08-19T04:47:41;100040.00;;;24.60
22322;BMP180;11328;53.928;18.522;2022-08-19T04:50:18;100042.00;;;24.60
22322;BMP180;11328;53.928;18.522;2022-08-19T04:52:45;100050.00;;;24.70
22322;BMP180;11328;53.928;18.522;2022-08-19T04:55:13;100057.00;;;24.70
22322;BMP180;11328;53.928;18.522;2022-08-19T04:57:40;100049.00;;;24.60
22322;BMP180;11328;53.928;18.522;2022-08-19T05:00:09;100054.00;;;24.70
22322;BMP180;11328;53.928;18.522;2022-08-19T05:02:38;100052.00;;;24.60
22322;BMP180;11328;53.928;18.522;2022-08-19T05:05:06;100051.00;;;24.60
22322;BMP180;11328;53.928;18.522;2022-08-19T05:07:33;100049.00;;;24.60
22322;BMP180;11328;53.928;18.522;2022-08-19T05:10:02;100039.00;;;24.70
22322;BMP180;11328;53.928;18.522;2022-08-19T05:12:29;100020.00;;;24.90
22322;BMP180;11328;53.928;18.522;2022-08-19T05:14:58;100041.00;;;25.00
22322;BMP180;11328;53.928;18.522;2022-08-19T05:17:26;100040.00;;;25.10
22322;BMP180;11328;53.928;18.522;2022-08-19T05:19:59;100040.00;;;25.10
22322;BMP180;11328;53.928;18.522;2022-08-19T05:22:46;100054.00;;;25.10
22322;BMP180;11328;53.928;18.522;2022-08-19T05:25:18;100054.00;;;25.10
22322;BMP180;11328;53.928;18.522;2022-08-19T05:27:47;100068.00;;;25.10
22322;BMP180;11328;53.928;18.522;2022-08-19T05:30:15;100068.00;;;25.20
22322;BMP180;11328;53.928;18.522;2022-08-19T05:32:43;100065.00;;;25.30
22322;BMP180;11328;53.928;18.522;2022-08-19T05:35:10;100060.00;;;25.30
22322;BMP180;11328;53.928;18.522;2022-08-19T05:37:39;100063.00;;;25.30
22322;BMP180;11328;53.928;18.522;2022-08-19T05:40:10;100070.00;;;25.30
22322;BMP180;11328;53.928;18.522;2022-08-19T05:42:37;100065.00;;;25.40
22322;BMP180;11328;53.928;18.522;2022-08-19T05:45:05;100064.00;;;25.50
22322;BMP180;11328;53.928;18.522;2022-08-19T05:47:33;100078.00;;;25.50
22322;BMP180;11328;53.928;18.522;2022-08-19T05:50:08;100065.00;;;25.50
22322;BMP180;11328;53.928;18.522;2022-08-19T05:52:37;100069.00;;;25.50
22322;BMP180;11328;53.928;18.522;2022-08-19T05:55:12;100073.00;;;25.60
22322;BMP180;11328;53.928;18.522;2022-08-19T05:57:39;100062.00;;;25.70
22322;BMP180;11328;53.928;18.522;2022-08-19T06:00:07;100081.00;;;26.00
22322;BMP180;11328;53.928;18.522;2022-08-19T06:02:39;100085.00;;;26.10
22322;BMP180;11328;53.928;18.522;2022-08-19T06:05:08;100081.00;;;26.20
22322;BMP180;11328;53.928;18.522;2022-08-19T06:07:37;100078.00;;;26.40
22322;BMP180;11328;53.928;18.522;2022-08-19T06:10:08;100073.00;;;26.40
22322;BMP180;11328;53.928;18.522;2022-08-19T06:12:36;100081.00;;;26.60
22322;BMP180;11328;53.928;18.522;2022-08-19T06:15:11;100084.00;;;26.70
22322;BMP180;11328;53.928;18.522;2022-08-19T06:17:39;100088.00;;;27.00
22322;BMP180;11328;53.928;18.522;2022-08-19T06:20:10;100095.00;;;27.10
22322;BMP180;11328;53.928;18.522;2022-08-19T06:22:45;100084.00;;;26.90
22322;BMP180;11328;53.928;18.522;2022-08-19T06:25:14;100092.00;;;27.10
22322;BMP180;11328;53.928;18.522;2022-08-19T06:27:42;100096.00;;;27.10
22322;BMP180;11328;53.928;18.522;2022-08-19T06:30:29;100083.00;;;27.40
22322;BMP180;11328;53.928;18.522;2022-08-19T06:32:56;100083.00;;;27.70
22322;BMP180;11328;53.928;18.522;2022-08-19T06:35:23;100078.00;;;27.90
22322;BMP180;11328;53.928;18.522;2022-08-19T06:37:50;100070.00;;;28.00
22322;BMP180;11328;53.928;18.522;2022-08-19T06:40:19;100069.00;;;28.20
22322;BMP180;11328;53.928;18.522;2022-08-19T06:42:46;100077.00;;;28.50
22322;BMP180;11328;53.928;18.522;2022-08-19T06:45:22;100075.00;;;29.00
22322;BMP180;11328;53.928;18.522;2022-08-19T06:47:52;100083.00;;;29.10
22322;BMP180;11328;53.928;18.522;2022-08-19T06:50:25;100080.00;;;29.40
22322;BMP180;11328;53.928;18.522;2022-08-19T06:52:52;100081.00;;;29.60
22322;BMP180;11328;53.928;18.522;2022-08-19T06:55:21;100083.00;;;29.60
22322;BMP180;11328;53.928;18.522;2022-08-19T06:57:49;100084.00;;;29.60
22322;BMP180;11328;53.928;18.522;2022-08-19T07:00:20;100092.00;;;29.50
22322;BMP180;11328;53.928;18.522;2022-08-19T07:02:48;100083.00;;;29.40
22322;BMP180;11328;53.928;18.522;2022-08-19T07:05:25;100089.00;;;29.50
22322;BMP180;11328;53.928;18.522;2022-08-19T07:07:52;100087.00;;;29.40
22322;BMP180;11328;53.928;18.522;2022-08-19T07:10:23;100087.00;;;29.40
22322;BMP180;11328;53.928;18.522;2022-08-19T07:12:51;100078.00;;;29.60
22322;BMP180;11328;53.928;18.522;2022-08-19T07:15:18;100080.00;;;30.00
22322;BMP180;11328;53.928;18.522;2022-08-19T07:17:48;100081.00;;;30.20
22322;BMP180;11328;53.928;18.522;2022-08-19T07:20:18;100086.00;;;30.30
22322;BMP180;11328;53.928;18.522;2022-08-19T07:22:45;100081.00;;;30.60
22322;BMP180;11328;53.928;18.522;2022-08-19T07:25:12;100082.00;;;30.80
22322;BMP180;11328;53.928;18.522;2022-08-19T07:27:40;100078.00;;;31.00
22322;BMP180;11328;53.928;18.522;2022-08-19T07:30:12;100080.00;;;30.80
22322;BMP180;11328;53.928;18.522;2022-08-19T07:32:40;100078.00;;;30.90
22322;BMP180;11328;53.928;18.522;2022-08-19T07:35:09;100066.00;;;31.10
22322;BMP180;11328;53.928;18.522;2022-08-19T07:37:36;100063.00;;;31.40
22322;BMP180;11328;53.928;18.522;2022-08-19T07:40:06;100059.00;;;31.50
22322;BMP180;11328;53.928;18.522;2022-08-19T07:42:34;100055.00;;;31.60
22322;BMP180;11328;53.928;18.522;2022-08-19T07:45:02;100041.00;;;31.60
22322;BMP180;11328;53.928;18.522;2022-08-19T07:47:29;100045.00;;;31.70
22322;BMP180;11328;53.928;18.522;2022-08-19T07:50:19;100044.00;;;31.70
22322;BMP180;11328;53.928;18.522;2022-08-19T07:52:48;100053.00;;;31.80
22322;BMP180;11328;53.928;18.522;2022-08-19T07:55:22;100049.00;;;32.10
22322;BMP180;11328;53.928;18.522;2022-08-19T07:58:15;100043.00;;;32.20
22322;BMP180;11328;53.928;18.522;2022-08-19T08:00:46;100021.00;;;32.20
22322;BMP180;11328;53.928;18.522;2022-08-19T08:03:16;100042.00;;;32.20
22322;BMP180;11328;53.928;18.522;2022-08-19T08:05:44;100049.00;;;32.20
22322;BMP180;11328;53.928;18.522;2022-08-19T08:08:30;100044.00;;;32.50
22322;BMP180;11328;53.928;18.522;2022-08-19T08:11:19;100034.00;;;32.80
22322;BMP180;11328;53.928;18.522;2022-08-19T08:13:49;100036.00;;;32.90
22322;BMP180;11328;53.928;18.522;2022-08-19T08:16:34;100030.00;;;32.80
22322;BMP180;11328;53.928;18.522;2022-08-19T08:19:14;100032.00;;;32.80
22322;BMP180;11328;53.928;18.522;2022-08-19T08:22:04;100027.00;;;33.00
22322;BMP180;11328;53.928;18.522;2022-08-19T08:24:33;100029.00;;;32.90
22322;BMP180;11328;53.928;18.522;2022-08-19T08:27:02;100031.00;;;32.80
22322;BMP180;11328;53.928;18.522;2022-08-19T08:29:37;100045.00;;;32.70
22322;BMP180;11328;53.928;18.522;2022-08-19T08:32:04;100041.00;;;32.90
22322;BMP180;11328;53.928;18.522;2022-08-19T08:34:41;100031.00;;;33.10
22322;BMP180;11328;53.928;18.522;2022-08-19T08:37:08;100040.00;;;33.20
22322;BMP180;11328;53.928;18.522;2022-08-19T08:39:35;100031.00;;;33.30
22322;BMP180;11328;53.928;18.522;2022-08-19T08:42:22;100027.00;;;33.40
22322;BMP180;11328;53.928;18.522;2022-08-19T08:45:02;100028.00;;;33.50
22322;BMP180;11328;53.928;18.522;2022-08-19T08:47:37;100023.00;;;33.40
22322;BMP180;11328;53.928;18.522;2022-08-19T08:50:18;100018.00;;;33.40
22322;BMP180;11328;53.928;18.522;2022-08-19T08:52:53;100015.00;;;33.40
22322;BMP180;11328;53.928;18.522;2022-08-19T08:55:27;100017.00;;;33.60
22322;BMP180;11328;53.928;18.522;2022-08-19T08:58:17;100020.00;;;33.90
22322;BMP180;11328;53.928;18.522;2022-08-19T09:00:48;100017.00;;;33.80
22322;BMP180;11328;53.928;18.522;2022-08-19T09:03:24;100014.00;;;33.80
22322;BMP180;11328;53.928;18.522;2022-08-19T09:06:03;100013.00;;;34.10
22322;BMP180;11328;53.928;18.522;2022-08-19T09:09:13;100006.00;;;34.10
22322;BMP180;11328;53.928;18.522;2022-08-19T09:12:03;100011.00;;;33.80
22322;BMP180;11328;53.928;18.522;2022-08-19T09:14:49;100007.00;;;33.70
22322;BMP180;11328;53.928;18.522;2022-08-19T09:17:25;100013.00;;;33.80
22322;BMP180;11328;53.928;18.522;2022-08-19T09:20:12;100009.00;;;34.00
22322;BMP180;11328;53.928;18.522;2022-08-19T09:22:42;100004.00;;;34.00
22322;BMP180;11328;53.928;18.522;2022-08-19T09:25:18;100002.00;;;34.10
22322;BMP180;11328;53.928;18.522;2022-08-19T09:27:56;99994.00;;;34.20
22322;BMP180;11328;53.928;18.522;2022-08-19T09:30:33;99998.00;;;34.30
22322;BMP180;11328;53.928;18.522;2022-08-19T09:33:00;99997.00;;;34.30
22322;BMP180;11328;53.928;18.522;2022-08-19T09:35:29;99997.00;;;34.30
22322;BMP180;11328;53.928;18.522;2022-08-19T09:37:58;99997.00;;;34.30
22322;BMP180;11328;53.928;18.522;2022-08-19T09:40:28;99992.00;;;34.30
22322;BMP180;11328;53.928;18.522;2022-08-19T09:42:58;99991.00;;;34.50
22322;BMP180;11328;53.928;18.522;2022-08-19T09:45:35;99986.00;;;34.50
22322;BMP180;11328;53.928;18.522;2022-08-19T09:48:03;100001.00;;;34.70
22322;BMP180;11328;53.928;18.522;2022-08-19T09:50:30;100001.00;;;34.50
22322;BMP180;11328;53.928;18.522;2022-08-19T09:53:02;99999.00;;;34.30
22322;BMP180;11328;53.928;18.522;2022-08-19T09:55:32;99997.00;;;34.10
22322;BMP180;11328;53.928;18.522;2022-08-19T09:58:01;100004.00;;;34.30
22322;BMP180;11328;53.928;18.522;2022-08-19T10:00:29;99985.00;;;34.20
22322;BMP180;11328;53.928;18.522;2022-08-19T10:02:57;99985.00;;;34.20
22322;BMP180;11328;53.928;18.522;2022-08-19T10:05:25;99988.00;;;34.20
22322;BMP180;11328;53.928;18.522;2022-08-19T10:08:23;99984.00;;;34.20
22322;BMP180;11328;53.928;18.522;2022-08-19T10:10:53;99973.00;;;34.40
22322;BMP180;11328;53.928;18.522;2022-08-19T10:13:26;99972.00;;;34.60
22322;BMP180;11328;53.928;18.522;2022-08-19T10:15:56;99966.00;;;34.70
22322;BMP180;11328;53.928;18.522;2022-08-19T10:18:28;99966.00;;;34.70
22322;BMP180;11328;53.928;18.522;2022-08-19T10:23:37;99942.00;;;35.30
22322;BMP180;11328;53.928;18.522;2022-08-19T10:26:06;99945.00;;;35.40
22322;BMP180;11328;53.928;18.522;2022-08-19T10:28:36;99937.00;;;35.70
22322;BMP180;11328;53.928;18.522;2022-08-19T10:31:23;99938.00;;;35.60
22322;BMP180;11328;53.928;18.522;2022-08-19T10:34:10;99944.00;;;35.90
22322;BMP180;11328;53.928;18.522;2022-08-19T10:36:53;99920.00;;;35.70
22322;BMP180;11328;53.928;18.522;2022-08-19T10:39:27;99921.00;;;35.50
22322;BMP180;11328;53.928;18.522;2022-08-19T10:42:10;99926.00;;;35.50
22322;BMP180;11328;53.928;18.522;2022-08-19T10:44:41;99921.00;;;35.40
22322;BMP180;11328;53.928;18.522;2022-08-19T10:47:09;99914.00;;;35.50
22322;BMP180;11328;53.928;18.522;2022-08-19T10:49:51;99926.00;;;35.60
22322;BMP180;11328;53.928;18.522;2022-08-19T10:52:41;99910.00;;;35.80
22322;BMP180;11328;53.928;18.522;2022-08-19T10:55:19;99912.00;;;35.90
22322;BMP180;11328;53.928;18.522;2022-08-19T10:58:15;99908.00;;;35.90
22322;BMP180;11328;53.928;18.522;2022-08-19T11:00:43;99907.00;;;35.80
22322;BMP180;11328;53.928;18.522;2022-08-19T11:03:12;99892.00;;;35.60
22322;BMP180;11328;53.928;18.522;2022-08-19T11:05:41;99900.00;;;35.40
22322;BMP180;11328;53.928;18.522;2022-08-19T11:08:09;99910.00;;;35.30
22322;BMP180;11328;53.928;18.522;2022-08-19T11:10:51;99907.00;;;35.50
22322;BMP180;11328;53.928;18.522;2022-08-19T11:13:23;99897.00;;;35.60
22322;BMP180;11328;53.928;18.522;2022-08-19T11:15:59;99906.00;;;35.50
22322;BMP180;11328;53.928;18.522;2022-08-19T11:18:42;99894.00;;;35.70
22322;BMP180;11328;53.928;18.522;2022-08-19T11:21:28;99896.00;;;35.80
22322;BMP180;11328;53.928;18.522;2022-08-19T11:24:01;99889.00;;;35.90
22322;BMP180;11328;53.928;18.522;2022-08-19T11:26:30;99891.00;;;35.80
22322;BMP180;11328;53.928;18.522;2022-08-19T11:28:58;99894.00;;;35.70
22322;BMP180;11328;53.928;18.522;2022-08-19T11:31:30;99897.00;;;35.90
22322;BMP180;11328;53.928;18.522;2022-08-19T11:34:02;99891.00;;;36.00
22322;BMP180;11328;53.928;18.522;2022-08-19T11:36:30;99895.00;;;36.00
22322;BMP180;11328;53.928;18.522;2022-08-19T11:38:59;99878.00;;;36.10
22322;BMP180;11328;53.928;18.522;2022-08-19T11:41:27;99885.00;;;36.20
22322;BMP180;11328;53.928;18.522;2022-08-19T11:43:54;99870.00;;;36.10
22322;BMP180;11328;53.928;18.522;2022-08-19T11:46:25;99884.00;;;36.20
22322;BMP180;11328;53.928;18.522;2022-08-19T11:48:57;99887.00;;;36.40
22322;BMP180;11328;53.928;18.522;2022-08-19T11:51:26;99882.00;;;36.30
22322;BMP180;11328;53.928;18.522;2022-08-19T11:53:56;99888.00;;;36.00
22322;BMP180;11328;53.928;18.522;2022-08-19T11:56:24;99884.00;;;35.90
22322;BMP180;11328;53.928;18.522;2022-08-19T11:58:53;99875.00;;;36.00
22322;BMP180;11328;53.928;18.522;2022-08-19T12:01:23;99857.00;;;36.00
22322;BMP180;11328;53.928;18.522;2022-08-19T12:03:53;99874.00;;;35.90
22322;BMP180;11328;53.928;18.522;2022-08-19T12:06:27;99882.00;;;35.90
22322;BMP180;11328;53.928;18.522;2022-08-19T12:08:58;99877.00;;;35.80
22322;BMP180;11328;53.928;18.522;2022-08-19T12:11:28;99881.00;;;35.70
22322;BMP180;11328;53.928;18.522;2022-08-19T12:14:00;99868.00;;;35.70
22322;BMP180;11328;53.928;18.522;2022-08-19T12:16:29;99876.00;;;35.60
22322;BMP180;11328;53.928;18.522;2022-08-19T12:18:59;99872.00;;;35.60
22322;BMP180;11328;53.928;18.522;2022-08-19T12:21:34;99870.00;;;35.50
22322;BMP180;11328;53.928;18.522;2022-08-19T12:24:04;99855.00;;;35.60
22322;BMP180;11328;53.928;18.522;2022-08-19T12:26:33;99852.00;;;35.70
22322;BMP180;11328;53.928;18.522;2022-08-19T12:29:18;99848.00;;;35.80
22322;BMP180;11328;53.928;18.522;2022-08-19T12:31:50;99840.00;;;35.80
22322;BMP180;11328;53.928;18.522;2022-08-19T12:34:17;99834.00;;;35.90
22322;BMP180;11328;53.928;18.522;2022-08-19T12:36:46;99838.00;;;35.80
22322;BMP180;11328;53.928;18.522;2022-08-19T12:39:16;99848.00;;;35.70
22322;BMP180;11328;53.928;18.522;2022-08-19T12:41:43;99837.00;;;35.80
22322;BMP180;11328;53.928;18.522;2022-08-19T12:44:20;99839.00;;;35.90
22322;BMP180;11328;53.928;18.522;2022-08-19T12:46:58;99842.00;;;35.70
22322;BMP180;11328;53.928;18.522;2022-08-19T12:49:28;99848.00;;;35.80
22322;BMP180;11328;53.928;18.522;2022-08-19T12:52:16;99842.00;;;35.80
22322;BMP180;11328;53.928;18.522;2022-08-19T12:54:50;99842.00;;;35.70
22322;BMP180;11328;53.928;18.522;2022-08-19T12:57:26;99842.00;;;35.50
22322;BMP180;11328;53.928;18.522;2022-08-19T13:00:25;99838.00;;;35.40
22322;BMP180;11328;53.928;18.522;2022-08-19T13:02:52;99833.00;;;35.40
22322;BMP180;11328;53.928;18.522;2022-08-19T13:05:28;99829.00;;;35.30
22322;BMP180;11328;53.928;18.522;2022-08-19T13:07:58;99835.00;;;35.20
22322;BMP180;11328;53.928;18.522;2022-08-19T13:10:31;99828.00;;;35.40
22322;BMP180;11328;53.928;18.522;2022-08-19T13:13:06;99831.00;;;35.50
22322;BMP180;11328;53.928;18.522;2022-08-19T13:15:37;99839.00;;;35.50
22322;BMP180;11328;53.928;18.522;2022-08-19T13:18:08;99835.00;;;35.70
22322;BMP180;11328;53.928;18.522;2022-08-19T13:20:38;99828.00;;;35.60
22322;BMP180;11328;53.928;18.522;2022-08-19T13:23:08;99831.00;;;35.60
22322;BMP180;11328;53.928;18.522;2022-08-19T13:25:36;99831.00;;;35.50
22322;BMP180;11328;53.928;18.522;2022-08-19T13:28:04;99830.00;;;35.60
22322;BMP180;11328;53.928;18.522;2022-08-19T13:30:33;99824.00;;;35.50
22322;BMP180;11328;53.928;18.522;2022-08-19T13:33:26;99840.00;;;35.50
22322;BMP180;11328;53.928;18.522;2022-08-19T13:35:58;99844.00;;;35.60
22322;BMP180;11328;53.928;18.522;2022-08-19T13:38:27;99845.00;;;35.70
22322;BMP180;11328;53.928;18.522;2022-08-19T13:40:55;99850.00;;;35.60
22322;BMP180;11328;53.928;18.522;2022-08-19T13:43:25;99853.00;;;35.50
22322;BMP180;11328;53.928;18.522;2022-08-19T13:45:55;99843.00;;;35.60
22322;BMP180;11328;53.928;18.522;2022-08-19T13:48:25;99849.00;;;35.60
22322;BMP180;11328;53.928;18.522;2022-08-19T13:50:54;99846.00;;;35.60
22322;BMP180;11328;53.928;18.522;2022-08-19T13:53:22;99837.00;;;35.60
22322;BMP180;11328;53.928;18.522;2022-08-19T13:55:50;99840.00;;;35.70
22322;BMP180;11328;53.928;18.522;2022-08-19T13:58:19;99848.00;;;35.70
22322;BMP180;11328;53.928;18.522;2022-08-19T14:00:49;99842.00;;;35.70
22322;BMP180;11328;53.928;18.522;2022-08-19T14:03:19;99845.00;;;35.70
22322;BMP180;11328;53.928;18.522;2022-08-19T14:05:46;99837.00;;;35.70
22322;BMP180;11328;53.928;18.522;2022-08-19T14:08:13;99842.00;;;35.70
22322;BMP180;11328;53.928;18.522;2022-08-19T14:10:41;99846.00;;;35.70
22322;BMP180;11328;53.928;18.522;2022-08-19T14:13:15;99848.00;;;35.80
22322;BMP180;11328;53.928;18.522;2022-08-19T14:15:44;99843.00;;;35.90
22322;BMP180;11328;53.928;18.522;2022-08-19T14:18:11;99832.00;;;36.00
22322;BMP180;11328;53.928;18.522;2022-08-19T14:20:42;99838.00;;;36.00